Audubon, Minnesota
Current Conditions -  °F | °C
As of 6:35 PM on Sunday 21 Dec 2014 (Local Time) from KDTL Reporting Station
Haze Haze  
Wind Chill: 22°   Ceiling: 400
Heat Index: 32°   Visibility: 5mi
Dew Point: 32°   Wind: 14mph
Humidity: 100%   Direction: 140°SE
Pressure: 29.6"   Gusts: 20mph
Location:  46.86°N, 95.98°W
Report Text: KDTL 220035Z AUTO 14012G17KT 5SM BR OVC004 00/00 A2960 RMK AO2
Loading
Personal Weather Stations






























Interactive Weather Map New forecast layout! Learn more

10-Day Weather Forecast

Advertisements
Track Severe Weather on mobile